Time;durP1;ratioP1;P1;durP2;ratioP2;P2;SDS_P1;SDS_P2;PMS_P1;PMS_P2;Temp;Humidity;BMP_temperature;BMP_pressure;BME280_temperature;BME280_humidity;BME280_pressure;Samples;Min_cycle;Max_cycle;Signal;HPM_P1;HPM_P2
2021/10/02 00:45:50;;;;;;;5.07;3.13;;;;;;;;;;5017892;28;20118;-60
2021/10/02 00:48:16;;;;;;;4.35;3.20;;;;;;;;;;5014842;28;20108;-61
2021/10/02 00:50:59;;;;;;;4.45;3.03;;;;;;;;;;5013487;28;20434;-60
2021/10/02 00:53:24;;;;;;;6.68;3.03;;;;;;;;;;5014295;28;20021;-62
2021/10/02 00:55:55;;;;;;;3.75;3.00;;;;;;;;;;5011866;28;20033;-57
2021/10/02 00:58:29;;;;;;;3.97;2.95;;;;;;;;;;4995166;28;20018;-62
2021/10/02 01:00:58;;;;;;;6.45;3.17;;;;;;;;;;4994932;28;20014;-62
2021/10/02 01:03:24;;;;;;;5.53;3.25;;;;;;;;;;4994530;28;20132;-61
2021/10/02 01:05:52;;;;;;;4.60;2.97;;;;;;;;;;4994643;28;20646;-62
2021/10/02 01:08:33;;;;;;;4.88;3.47;;;;;;;;;;4994951;28;20022;-59
2021/10/02 01:11:23;;;;;;;5.18;3.15;;;;;;;;;;4994978;28;20026;-60
2021/10/02 01:14:09;;;;;;;4.22;3.25;;;;;;;;;;4994264;28;20507;-61
2021/10/02 01:16:45;;;;;;;6.75;3.08;;;;;;;;;;4994655;28;20033;-59
2021/10/02 01:19:29;;;;;;;6.15;2.95;;;;;;;;;;4994736;28;20108;-60
2021/10/02 01:22:08;;;;;;;4.68;3.20;;;;;;;;;;4993662;28;20054;-63
2021/10/02 01:25:09;;;;;;;4.65;3.22;;;;;;;;;;5013760;28;20021;-64
2021/10/02 01:27:44;;;;;;;5.15;3.63;;;;;;;;;;4961730;28;20151;-64
2021/10/02 01:30:20;;;;;;;6.80;3.40;;;;;;;;;;4990053;28;20038;-64
2021/10/02 01:32:59;;;;;;;5.57;3.80;;;;;;;;;;4991981;28;20038;-64
2021/10/02 01:35:43;;;;;;;5.93;4.15;;;;;;;;;;4995210;28;20077;-64
2021/10/02 01:48:57;;;;;;;6.60;4.07;;;;;;;;;;4994699;28;20049;-63
2021/10/02 01:51:23;;;;;;;7.95;3.70;;;;;;;;;;4994776;28;20026;-64
2021/10/02 01:53:49;;;;;;;6.32;3.72;;;;;;;;;;4993611;28;20026;-63
2021/10/02 01:56:16;;;;;;;6.45;3.70;;;;;;;;;;4999151;28;20029;-64
2021/10/02 01:58:42;;;;;;;6.93;4.03;;;;;;;;;;4998116;28;20019;-64
2021/10/02 02:01:07;;;;;;;8.25;3.75;;;;;;;;;;4993526;28;20022;-63
2021/10/02 02:03:36;;;;;;;4.85;3.38;;;;;;;;;;4994643;28;20061;-64
2021/10/02 02:06:02;;;;;;;5.53;3.75;;;;;;;;;;4994587;28;20126;-63
2021/10/02 02:08:32;;;;;;;5.70;4.20;;;;;;;;;;4994743;28;20101;-64
2021/10/02 02:11:00;;;;;;;5.18;3.83;;;;;;;;;;4994515;28;20025;-64
2021/10/02 02:13:39;;;;;;;6.13;3.97;;;;;;;;;;4993218;28;20025;-64
2021/10/02 02:16:07;;;;;;;5.97;3.90;;;;;;;;;;4977186;28;20018;-64
2021/10/02 02:18:33;;;;;;;5.90;4.18;;;;;;;;;;4994412;28;20022;-64
2021/10/02 02:21:09;;;;;;;5.50;4.18;;;;;;;;;;4993873;28;20109;-63
2021/10/02 02:23:37;;;;;;;6.38;3.95;;;;;;;;;;5007059;28;20080;-64
2021/10/02 02:26:09;;;;;;;7.18;3.90;;;;;;;;;;5012693;28;20030;-64
2021/10/02 02:28:38;;;;;;;5.78;3.90;;;;;;;;;;5013663;28;20025;-64
2021/10/02 02:31:07;;;;;;;5.55;4.20;;;;;;;;;;5013603;28;20105;-63
2021/10/02 02:33:33;;;;;;;6.78;4.05;;;;;;;;;;4993806;28;20026;-64
2021/10/02 02:35:58;;;;;;;6.97;4.35;;;;;;;;;;4992788;28;20026;-64
2021/10/02 02:38:33;;;;;;;5.30;3.80;;;;;;;;;;4992712;28;20022;-64
2021/10/02 02:40:58;;;;;;;5.55;4.07;;;;;;;;;;4993828;28;20386;-62
2021/10/02 02:43:31;;;;;;;7.53;4.20;;;;;;;;;;4993719;28;20059;-64
2021/10/02 02:45:58;;;;;;;7.18;4.25;;;;;;;;;;4993895;28;20105;-63
2021/10/02 02:48:34;;;;;;;6.95;4.10;;;;;;;;;;4993954;28;20038;-64
2021/10/02 02:51:01;;;;;;;6.55;4.20;;;;;;;;;;4993837;28;20023;-63
2021/10/02 02:53:41;;;;;;;5.15;3.92;;;;;;;;;;4993797;28;20054;-63
2021/10/02 02:56:29;;;;;;;5.95;4.05;;;;;;;;;;4993723;28;20489;-64
2021/10/02 02:58:59;;;;;;;5.45;4.00;;;;;;;;;;4990265;28;20065;-64
2021/10/02 03:01:25;;;;;;;6.10;4.38;;;;;;;;;;4993559;28;20025;-64
2021/10/02 03:03:52;;;;;;;6.00;3.80;;;;;;;;;;4993718;28;20105;-64
2021/10/02 03:06:21;;;;;;;8.68;4.13;;;;;;;;;;4993437;28;20023;-64
2021/10/02 03:08:51;;;;;;;5.95;4.07;;;;;;;;;;4993567;28;20018;-64
2021/10/02 03:11:35;;;;;;;8.48;4.45;;;;;;;;;;4993447;28;20062;-64
2021/10/02 03:14:01;;;;;;;7.95;4.47;;;;;;;;;;4993494;28;20480;-63
2021/10/02 03:16:26;;;;;;;6.97;4.30;;;;;;;;;;4992245;28;20033;-63
2021/10/02 03:19:02;;;;;;;7.78;4.70;;;;;;;;;;4993336;28;20027;-63
2021/10/02 03:21:31;;;;;;;7.43;4.80;;;;;;;;;;4991884;28;20047;-62
2021/10/02 03:24:02;;;;;;;9.90;4.05;;;;;;;;;;5000180;28;20022;-64
2021/10/02 03:26:31;;;;;;;6.75;4.40;;;;;;;;;;4998710;28;20054;-63
2021/10/02 03:28:56;;;;;;;6.22;4.43;;;;;;;;;;4993324;28;20022;-64
2021/10/02 03:31:22;;;;;;;8.10;4.53;;;;;;;;;;4991875;28;20022;-64
2021/10/02 03:33:54;;;;;;;11.43;4.05;;;;;;;;;;4993005;28;20022;-64
2021/10/02 03:36:19;;;;;;;7.00;4.40;;;;;;;;;;4993132;28;20026;-63
2021/10/02 03:38:48;;;;;;;7.50;4.50;;;;;;;;;;4991865;28;20022;-64
2021/10/02 03:41:13;;;;;;;7.60;4.55;;;;;;;;;;4992980;28;20019;-64
2021/10/02 03:43:45;;;;;;;8.88;4.95;;;;;;;;;;4993123;28;20073;-64
2021/10/02 03:46:10;;;;;;;7.35;4.32;;;;;;;;;;4993120;28;20065;-64
2021/10/02 03:48:48;;;;;;;7.97;4.40;;;;;;;;;;4992000;28;20038;-63
2021/10/02 03:51:13;;;;;;;7.70;5.05;;;;;;;;;;4992972;28;20474;-64
2021/10/02 03:53:44;;;;;;;7.40;5.25;;;;;;;;;;4993066;28;20034;-63
2021/10/02 03:56:11;;;;;;;7.28;4.90;;;;;;;;;;4992850;28;20018;-64
2021/10/02 03:58:46;;;;;;;7.80;5.20;;;;;;;;;;4993039;28;20026;-63
2021/10/02 04:01:14;;;;;;;9.77;4.95;;;;;;;;;;4992965;28;20101;-63
2021/10/02 04:03:45;;;;;;;7.95;5.43;;;;;;;;;;4993064;28;20026;-64
2021/10/02 04:06:12;;;;;;;6.65;5.45;;;;;;;;;;4992815;28;20022;-64
2021/10/02 04:08:37;;;;;;;9.68;5.88;;;;;;;;;;4992750;28;20034;-63
2021/10/02 04:11:04;;;;;;;8.60;5.47;;;;;;;;;;4993258;28;20018;-63
2021/10/02 04:13:29;;;;;;;8.77;5.55;;;;;;;;;;4996753;28;20344;-63
2021/10/02 04:15:55;;;;;;;7.68;4.80;;;;;;;;;;4996760;28;20026;-63
2021/10/02 04:18:20;;;;;;;6.27;4.67;;;;;;;;;;4996735;28;20109;-64
2021/10/02 04:20:45;;;;;;;7.27;5.07;;;;;;;;;;4996662;28;20272;-64
2021/10/02 04:23:10;;;;;;;9.30;5.43;;;;;;;;;;4996599;28;20289;-63
2021/10/02 04:25:35;;;;;;;9.03;5.00;;;;;;;;;;4992482;28;20265;-64
2021/10/02 04:28:01;;;;;;;7.20;5.00;;;;;;;;;;4995204;28;20281;-64
2021/10/02 04:30:32;;;;;;;7.57;4.83;;;;;;;;;;4995318;28;20033;-64
2021/10/02 04:33:00;;;;;;;6.15;4.55;;;;;;;;;;4996054;28;20019;-64
2021/10/02 04:35:25;;;;;;;9.85;4.78;;;;;;;;;;4996379;28;20019;-64
2021/10/02 04:37:58;;;;;;;5.97;4.57;;;;;;;;;;4996151;28;20044;-64
2021/10/02 04:40:23;;;;;;;7.13;4.75;;;;;;;;;;4996294;28;20269;-63
2021/10/02 04:42:48;;;;;;;7.22;4.45;;;;;;;;;;4996271;28;20392;-63
2021/10/02 04:45:17;;;;;;;7.20;4.78;;;;;;;;;;4996396;28;20022;-63
2021/10/02 04:47:46;;;;;;;7.97;5.10;;;;;;;;;;4996162;28;20026;-64
2021/10/02 04:50:14;;;;;;;5.82;4.38;;;;;;;;;;4996065;28;20429;-63
2021/10/02 04:52:39;;;;;;;7.03;4.80;;;;;;;;;;4995674;28;20109;-64
2021/10/02 04:55:06;;;;;;;7.35;4.35;;;;;;;;;;4994891;28;20085;-64
2021/10/02 04:57:31;;;;;;;6.35;4.80;;;;;;;;;;4995908;28;20030;-64
2021/10/02 04:59:59;;;;;;;6.45;4.25;;;;;;;;;;4995955;28;20500;-64
2021/10/02 05:02:34;;;;;;;6.50;4.53;;;;;;;;;;4995710;28;20034;-63
2021/10/02 05:04:59;;;;;;;7.28;4.90;;;;;;;;;;4995767;28;20032;-63
2021/10/02 05:07:24;;;;;;;6.53;4.60;;;;;;;;;;4995833;28;20105;-62
2021/10/02 05:09:53;;;;;;;8.00;5.95;;;;;;;;;;4994531;28;20386;-63
2021/10/02 05:12:24;;;;;;;6.32;4.43;;;;;;;;;;4995521;28;20109;-63
2021/10/02 05:14:58;;;;;;;5.07;4.00;;;;;;;;;;4995658;28;20465;-63
2021/10/02 05:17:24;;;;;;;7.18;4.40;;;;;;;;;;4995334;28;20041;-63
2021/10/02 05:19:49;;;;;;;7.05;4.32;;;;;;;;;;4995469;28;20022;-63
2021/10/02 05:22:14;;;;;;;6.40;4.40;;;;;;;;;;4994313;28;20054;-64
2021/10/02 05:24:40;;;;;;;8.55;4.82;;;;;;;;;;5009042;28;20499;-64
2021/10/02 05:27:09;;;;;;;6.80;4.88;;;;;;;;;;4996616;28;20022;-64
2021/10/02 05:29:38;;;;;;;6.75;4.20;;;;;;;;;;4995291;28;20026;-62
2021/10/02 05:32:04;;;;;;;5.70;4.28;;;;;;;;;;4993545;28;20024;-64
2021/10/02 05:34:29;;;;;;;7.47;4.70;;;;;;;;;;4995065;28;20022;-63
2021/10/02 05:36:55;;;;;;;7.57;4.43;;;;;;;;;;4995036;28;20470;-64
2021/10/02 05:39:20;;;;;;;6.57;5.03;;;;;;;;;;4995051;28;20023;-63
2021/10/02 05:41:45;;;;;;;6.35;4.25;;;;;;;;;;4994938;28;20069;-63
2021/10/02 05:44:11;;;;;;;5.85;4.13;;;;;;;;;;4994990;28;20030;-64
2021/10/02 05:46:36;;;;;;;6.03;4.13;;;;;;;;;;4999207;28;20117;-62
2021/10/02 05:49:01;;;;;;;7.00;4.30;;;;;;;;;;5005544;28;20526;-63
2021/10/02 05:51:27;;;;;;;8.07;4.55;;;;;;;;;;5012067;28;20089;-63
2021/10/02 05:53:55;;;;;;;8.82;4.40;;;;;;;;;;5002395;28;20014;-63
2021/10/02 05:56:20;;;;;;;7.10;4.55;;;;;;;;;;5029486;28;20010;-63
2021/10/02 05:58:45;;;;;;;5.17;3.73;;;;;;;;;;5010364;28;20456;-63
2021/10/02 06:01:10;;;;;;;6.53;4.47;;;;;;;;;;4996152;28;20696;-63
2021/10/02 06:03:35;;;;;;;5.07;3.87;;;;;;;;;;4993275;28;20292;-63
2021/10/02 06:06:01;;;;;;;7.25;4.32;;;;;;;;;;5004549;28;20268;-63
2021/10/02 06:08:29;;;;;;;6.97;4.60;;;;;;;;;;5001088;28;20164;-63
2021/10/02 06:10:55;;;;;;;6.38;4.50;;;;;;;;;;5002147;28;20661;-61
2021/10/02 06:13:21;;;;;;;6.75;4.78;;;;;;;;;;4994136;28;20015;-63
2021/10/02 06:15:46;;;;;;;5.13;3.97;;;;;;;;;;4998655;28;20354;-62
2021/10/02 06:18:17;;;;;;;8.27;4.40;;;;;;;;;;5002673;28;20018;-63
2021/10/02 06:20:47;;;;;;;5.75;4.32;;;;;;;;;;5006316;28;20276;-64
2021/10/02 06:23:12;;;;;;;6.75;4.30;;;;;;;;;;5009711;28;20046;-63
2021/10/02 06:25:37;;;;;;;7.78;4.38;;;;;;;;;;5005408;28;22043;-63
2021/10/02 06:28:02;;;;;;;5.70;3.97;;;;;;;;;;5024252;28;20030;-62
2021/10/02 06:30:27;;;;;;;6.20;4.30;;;;;;;;;;5001888;28;20281;-60
2021/10/02 06:32:53;;;;;;;6.25;4.35;;;;;;;;;;4993542;28;20018;-61
2021/10/02 06:35:18;;;;;;;6.43;4.57;;;;;;;;;;5000329;28;20026;-62
2021/10/02 06:37:44;;;;;;;6.28;4.70;;;;;;;;;;5039419;28;20264;-62
2021/10/02 06:40:13;;;;;;;7.38;4.15;;;;;;;;;;5009544;28;20018;-62
2021/10/02 06:42:41;;;;;;;6.07;4.72;;;;;;;;;;5000743;28;20374;-62
2021/10/02 06:45:13;;;;;;;6.47;4.50;;;;;;;;;;5003892;28;20076;-63
2021/10/02 06:47:38;;;;;;;7.72;4.63;;;;;;;;;;5012287;28;20073;-62
2021/10/02 06:50:04;;;;;;;8.10;4.60;;;;;;;;;;5002622;28;20476;-62
2021/10/02 06:52:30;;;;;;;6.88;4.63;;;;;;;;;;5011169;28;20782;-61
2021/10/02 06:54:56;;;;;;;8.35;4.88;;;;;;;;;;5000813;28;20054;-63
2021/10/02 06:57:30;;;;;;;6.70;4.95;;;;;;;;;;5004701;28;20096;-63
2021/10/02 06:59:55;;;;;;;7.55;4.38;;;;;;;;;;5005877;28;20014;-63
2021/10/02 07:02:21;;;;;;;7.73;4.53;;;;;;;;;;5012267;28;20022;-63
2021/10/02 07:04:49;;;;;;;6.05;4.57;;;;;;;;;;5011756;28;20289;-63
2021/10/02 07:07:26;;;;;;;4.80;3.50;;;;;;;;;;5012258;28;20472;-63
2021/10/02 07:09:54;;;;;;;7.88;4.47;;;;;;;;;;5012202;28;20034;-63
2021/10/02 07:12:20;;;;;;;5.15;4.00;;;;;;;;;;5012121;28;20339;-63
2021/10/02 07:14:45;;;;;;;5.53;3.50;;;;;;;;;;5011473;28;20445;-63
2021/10/02 07:17:11;;;;;;;5.20;3.72;;;;;;;;;;5012090;28;20256;-63
2021/10/02 07:19:37;;;;;;;4.32;3.20;;;;;;;;;;5011938;28;20018;-63
2021/10/02 07:22:02;;;;;;;9.02;3.65;;;;;;;;;;5027561;23;20063;-64
2021/10/02 07:24:27;;;;;;;5.32;3.42;;;;;;;;;;5033567;28;20423;-64
2021/10/02 07:26:59;;;;;;;6.30;3.20;;;;;;;;;;5033332;28;20010;-65
2021/10/02 07:29:24;;;;;;;5.68;3.60;;;;;;;;;;5034019;28;20260;-64
2021/10/02 07:31:50;;;;;;;3.80;3.13;;;;;;;;;;5037556;28;20475;-63
2021/10/02 07:34:15;;;;;;;3.85;2.90;;;;;;;;;;5054001;28;20313;-65
2021/10/02 07:36:40;;;;;;;4.57;3.35;;;;;;;;;;5053147;28;20028;-64
2021/10/02 07:39:06;;;;;;;3.90;2.80;;;;;;;;;;5048712;28;20024;-64
2021/10/02 07:41:33;;;;;;;3.97;3.07;;;;;;;;;;5034296;28;20025;-64
2021/10/02 07:44:01;;;;;;;5.00;3.13;;;;;;;;;;5034246;28;20300;-64
2021/10/02 07:46:32;;;;;;;7.97;3.17;;;;;;;;;;5034248;28;20021;-64
2021/10/02 07:48:58;;;;;;;4.63;3.03;;;;;;;;;;5034814;28;20033;-64
2021/10/02 07:51:24;;;;;;;4.38;3.28;;;;;;;;;;5035458;28;20431;-64
2021/10/02 07:53:50;;;;;;;8.15;3.28;;;;;;;;;;5035450;28;20044;-64
2021/10/02 07:56:19;;;;;;;4.65;2.83;;;;;;;;;;5035411;28;20024;-64
2021/10/02 07:58:46;;;;;;;8.48;3.17;;;;;;;;;;5034060;28;20017;-64
2021/10/02 08:01:21;;;;;;;4.13;2.85;;;;;;;;;;5034765;28;20014;-64
2021/10/02 08:03:51;;;;;;;5.60;3.22;;;;;;;;;;5033101;28;20388;-64
2021/10/02 08:06:21;;;;;;;4.60;3.05;;;;;;;;;;5034145;28;20014;-64
2021/10/02 08:08:46;;;;;;;4.68;3.30;;;;;;;;;;5032731;28;20014;-65
2021/10/02 08:11:11;;;;;;;8.43;3.47;;;;;;;;;;5032484;28;20033;-65
2021/10/02 08:13:39;;;;;;;5.17;2.93;;;;;;;;;;5032302;28;20287;-65
2021/10/02 08:16:06;;;;;;;6.22;3.53;;;;;;;;;;5031303;28;20299;-65
2021/10/02 08:18:37;;;;;;;5.55;3.17;;;;;;;;;;5032263;28;20067;-65
2021/10/02 08:21:03;;;;;;;6.80;3.65;;;;;;;;;;5032715;28;20460;-65
2021/10/02 08:23:28;;;;;;;4.78;3.75;;;;;;;;;;5031811;28;20064;-65
2021/10/02 08:25:54;;;;;;;4.60;3.53;;;;;;;;;;5032200;28;20017;-64
2021/10/02 08:28:35;;;;;;;6.15;3.75;;;;;;;;;;5030748;28;20036;-65
2021/10/02 08:31:01;;;;;;;4.20;3.45;;;;;;;;;;5027698;28;20013;-64
2021/10/02 08:33:29;;;;;;;6.30;4.05;;;;;;;;;;5051630;28;20024;-65
2021/10/02 08:36:01;;;;;;;4.72;3.40;;;;;;;;;;5050417;28;20361;-64
2021/10/02 08:38:36;;;;;;;6.35;3.40;;;;;;;;;;5051825;28;20024;-64
2021/10/02 08:41:02;;;;;;;4.80;3.25;;;;;;;;;;5051687;28;20494;-64
2021/10/02 08:43:28;;;;;;;4.22;3.58;;;;;;;;;;5051591;28;20402;-65
2021/10/02 08:45:54;;;;;;;6.20;3.53;;;;;;;;;;5051398;28;20025;-64
2021/10/02 08:48:19;;;;;;;4.30;3.30;;;;;;;;;;5051659;28;20017;-64
2021/10/02 08:50:45;;;;;;;7.80;3.38;;;;;;;;;;5051569;28;20075;-64
2021/10/02 08:53:11;;;;;;;4.78;3.03;;;;;;;;;;5051460;28;20017;-64
2021/10/02 08:55:37;;;;;;;4.40;3.20;;;;;;;;;;5050182;28;20079;-64
2021/10/02 08:58:03;;;;;;;4.13;3.30;;;;;;;;;;5052987;28;20035;-64
2021/10/02 09:00:29;;;;;;;4.35;3.40;;;;;;;;;;5035738;28;20025;-64
2021/10/02 09:02:55;;;;;;;4.93;3.53;;;;;;;;;;5035055;28;20071;-64
2021/10/02 09:05:21;;;;;;;3.88;3.35;;;;;;;;;;5033758;28;20021;-64
2021/10/02 09:07:50;;;;;;;4.30;3.13;;;;;;;;;;5035019;28;20482;-64
2021/10/02 09:10:16;;;;;;;7.88;3.47;;;;;;;;;;5033925;28;20018;-64
2021/10/02 09:12:45;;;;;;;4.50;3.50;;;;;;;;;;5034723;28;20158;-64
2021/10/02 09:15:10;;;;;;;5.47;3.60;;;;;;;;;;5033437;28;20022;-64
2021/10/02 09:17:36;;;;;;;5.05;3.55;;;;;;;;;;5033834;28;20013;-64
2021/10/02 09:20:01;;;;;;;5.57;4.20;;;;;;;;;;5033500;28;20111;-64
2021/10/02 09:22:27;;;;;;;4.60;3.50;;;;;;;;;;5034520;28;20293;-63
2021/10/02 09:24:53;;;;;;;5.32;3.70;;;;;;;;;;5033343;28;20021;-64
2021/10/02 09:27:21;;;;;;;4.78;3.78;;;;;;;;;;5034551;28;20022;-64
2021/10/02 09:29:51;;;;;;;5.32;3.67;;;;;;;;;;5040163;28;20541;-64
2021/10/02 09:32:17;;;;;;;6.20;3.90;;;;;;;;;;5021003;28;20029;-64
2021/10/02 09:34:47;;;;;;;6.10;3.63;;;;;;;;;;5033434;28;20013;-64
2021/10/02 09:37:39;;;;;;;4.20;3.70;;;;;;;;;;5034540;28;20071;-63
2021/10/02 09:40:06;;;;;;;4.78;3.30;;;;;;;;;;5032522;28;20034;-64
2021/10/02 09:42:34;;;;;;;6.93;3.63;;;;;;;;;;5034306;28;20064;-64
2021/10/02 09:45:01;;;;;;;4.40;3.45;;;;;;;;;;5033665;28;20017;-62
2021/10/02 09:47:26;;;;;;;3.47;3.15;;;;;;;;;;5013773;28;20061;-63
2021/10/02 09:49:53;;;;;;;4.82;3.50;;;;;;;;;;5034262;28;20063;-65
2021/10/02 09:52:32;;;;;;;4.50;3.80;;;;;;;;;;5040387;28;20064;-65
2021/10/02 09:54:58;;;;;;;7.00;3.40;;;;;;;;;;5032862;28;20025;-66
2021/10/02 10:00:28;;;;;;;5.53;3.42;;;;;;;;;;5016301;28;20042;-65
2021/10/02 10:02:54;;;;;;;5.45;3.70;;;;;;;;;;5024202;28;20033;-65
2021/10/02 10:05:19;;;;;;;4.13;3.25;;;;;;;;;;5032549;28;20041;-66
2021/10/02 10:07:56;;;;;;;4.20;3.28;;;;;;;;;;5032604;28;20029;-66
2021/10/02 10:10:25;;;;;;;4.13;3.55;;;;;;;;;;5033818;28;20017;-66
2021/10/02 10:12:50;;;;;;;6.70;3.53;;;;;;;;;;5032334;28;20072;-65
2021/10/02 10:15:35;;;;;;;4.93;3.40;;;;;;;;;;5032405;28;20021;-66
2021/10/02 10:18:00;;;;;;;6.20;3.90;;;;;;;;;;5033650;28;20477;-66
2021/10/02 10:20:45;;;;;;;6.07;3.58;;;;;;;;;;5032325;28;20072;-66
2021/10/02 10:23:11;;;;;;;8.55;3.55;;;;;;;;;;5033405;28;20049;-64
2021/10/02 10:25:55;;;;;;;4.15;3.35;;;;;;;;;;5033327;28;20503;-66
2021/10/02 10:28:24;;;;;;;5.05;4.05;;;;;;;;;;5032161;28;20013;-66
2021/10/02 10:30:49;;;;;;;6.22;3.40;;;;;;;;;;5038441;28;20079;-66
2021/10/02 10:33:16;;;;;;;5.35;3.55;;;;;;;;;;5053070;28;20434;-65
2021/10/02 10:35:43;;;;;;;4.30;3.58;;;;;;;;;;5031995;28;20014;-66
2021/10/02 10:38:10;;;;;;;4.78;3.70;;;;;;;;;;5033204;28;20470;-65
2021/10/02 10:40:35;;;;;;;5.20;3.65;;;;;;;;;;5032429;28;20223;-65
2021/10/02 10:43:01;;;;;;;5.25;3.90;;;;;;;;;;5033055;28;20104;-66
2021/10/02 10:45:27;;;;;;;6.80;4.10;;;;;;;;;;5033084;28;20029;-66
2021/10/02 10:47:52;;;;;;;5.82;4.00;;;;;;;;;;5032988;28;20030;-65
2021/10/02 10:50:18;;;;;;;6.10;4.10;;;;;;;;;;5031765;28;20171;-65
2021/10/02 10:52:44;;;;;;;4.63;3.70;;;;;;;;;;5048222;28;20071;-66
2021/10/02 10:55:11;;;;;;;5.50;3.92;;;;;;;;;;5033292;28;20017;-65
2021/10/02 10:57:44;;;;;;;5.35;4.13;;;;;;;;;;5033254;28;20009;-65
2021/10/02 11:00:14;;;;;;;6.00;4.50;;;;;;;;;;5033003;28;20423;-65
2021/10/02 11:02:50;;;;;;;6.15;3.90;;;;;;;;;;5037376;28;20021;-65
2021/10/02 11:05:34;;;;;;;9.57;4.00;;;;;;;;;;5032898;28;20021;-64
2021/10/02 11:08:00;;;;;;;4.20;3.75;;;;;;;;;;5031390;28;20025;-65
2021/10/02 11:10:40;;;;;;;5.05;3.92;;;;;;;;;;5031330;28;20025;-65
2021/10/02 11:13:06;;;;;;;6.45;4.07;;;;;;;;;;5031215;28;20048;-65
2021/10/02 11:15:32;;;;;;;6.25;4.00;;;;;;;;;;5031188;28;20025;-63
2021/10/02 11:17:57;;;;;;;5.45;4.57;;;;;;;;;;5026930;28;20367;-64
2021/10/02 11:20:25;;;;;;;8.13;4.47;;;;;;;;;;5039056;28;20100;-63
2021/10/02 11:23:14;;;;;;;7.18;4.03;;;;;;;;;;5041601;28;20075;-62
2021/10/02 11:25:39;;;;;;;4.60;3.85;;;;;;;;;;5013758;28;20045;-65
2021/10/02 11:28:26;;;;;;;4.45;3.88;;;;;;;;;;5037024;28;20051;-61
2021/10/02 11:30:52;;;;;;;4.63;3.55;;;;;;;;;;5032293;28;20028;-64
2021/10/02 11:33:47;;;;;;;5.03;3.70;;;;;;;;;;5024450;28;20025;-64
2021/10/02 11:36:30;;;;;;;5.50;3.38;;;;;;;;;;5025541;28;20026;-63
2021/10/02 11:39:14;;;;;;;3.78;3.13;;;;;;;;;;5025058;28;20022;-63
2021/10/02 11:41:50;;;;;;;3.97;3.55;;;;;;;;;;5031858;28;20017;-63
2021/10/02 11:44:21;;;;;;;4.53;3.42;;;;;;;;;;5032168;28;20025;-62
2021/10/02 11:46:46;;;;;;;4.07;3.42;;;;;;;;;;5031052;28;20014;-63
2021/10/02 11:49:18;;;;;;;4.32;3.45;;;;;;;;;;5032104;28;20067;-63
2021/10/02 11:52:02;;;;;;;4.20;3.30;;;;;;;;;;5030707;28;20104;-63
2021/10/02 11:54:28;;;;;;;4.07;3.10;;;;;;;;;;5032127;28;20021;-61
2021/10/02 11:57:07;;;;;;;4.25;3.50;;;;;;;;;;5030819;28;20419;-63
2021/10/02 11:59:33;;;;;;;3.17;2.88;;;;;;;;;;5030840;28;20432;-63
2021/10/02 12:02:02;;;;;;;3.88;3.38;;;;;;;;;;5032003;28;20028;-63
2021/10/02 12:04:29;;;;;;;5.35;3.20;;;;;;;;;;5031909;28;20403;-63
2021/10/02 12:06:55;;;;;;;4.35;3.13;;;;;;;;;;5031929;28;20052;-63
2021/10/02 12:09:20;;;;;;;4.20;3.33;;;;;;;;;;5032018;28;20056;-61
2021/10/02 12:11:47;;;;;;;4.82;3.55;;;;;;;;;;5032010;28;20028;-62
2021/10/02 12:14:13;;;;;;;4.45;3.40;;;;;;;;;;5030749;28;20060;-62
2021/10/02 12:16:38;;;;;;;6.05;3.50;;;;;;;;;;5030556;28;20022;-63
2021/10/02 12:19:07;;;;;;;7.60;3.75;;;;;;;;;;5031969;28;20025;-63
2021/10/02 12:21:34;;;;;;;5.53;3.28;;;;;;;;;;5031658;28;20030;-61
2021/10/02 12:24:08;;;;;;;3.30;3.00;;;;;;;;;;5030619;28;20056;-60
2021/10/02 12:26:42;;;;;;;3.28;2.97;;;;;;;;;;5030512;28;20090;-60
2021/10/02 12:29:08;;;;;;;4.35;3.58;;;;;;;;;;5031879;28;20020;-60
2021/10/02 12:31:59;;;;;;;6.40;3.92;;;;;;;;;;5032514;28;20492;-60
2021/10/02 12:34:25;;;;;;;3.75;3.17;;;;;;;;;;5033384;28;20052;-62
2021/10/02 12:37:02;;;;;;;3.70;3.38;;;;;;;;;;5028338;28;20010;-63
2021/10/02 12:39:32;;;;;;;3.95;3.28;;;;;;;;;;5032395;28;20026;-62
2021/10/02 12:41:57;;;;;;;4.60;3.50;;;;;;;;;;5034176;28;20022;-62
2021/10/02 12:44:27;;;;;;;7.45;3.40;;;;;;;;;;5034010;28;20032;-63
2021/10/02 12:46:53;;;;;;;3.92;3.53;;;;;;;;;;5035428;28;20447;-62
2021/10/02 12:49:19;;;;;;;4.55;3.45;;;;;;;;;;5035387;28;20026;-61
2021/10/02 12:51:45;;;;;;;4.75;3.45;;;;;;;;;;5033786;28;20048;-62
2021/10/02 12:54:10;;;;;;;5.55;3.70;;;;;;;;;;5035289;28;20061;-60
2021/10/02 12:56:53;;;;;;;4.72;3.30;;;;;;;;;;5032660;28;20026;-57
2021/10/02 12:59:18;;;;;;;4.78;3.08;;;;;;;;;;5033149;28;20013;-60
2021/10/02 13:01:48;;;;;;;4.00;3.50;;;;;;;;;;5034034;28;20071;-60
2021/10/02 13:04:15;;;;;;;5.57;3.60;;;;;;;;;;5034329;28;20029;-60
2021/10/02 13:06:47;;;;;;;4.15;3.50;;;;;;;;;;5032593;28;20495;-59
2021/10/02 13:09:12;;;;;;;3.97;3.40;;;;;;;;;;5034170;28;20101;-60
2021/10/02 13:11:38;;;;;;;3.53;3.20;;;;;;;;;;5034023;28;20113;-60
2021/10/02 13:14:03;;;;;;;5.93;3.50;;;;;;;;;;5032777;28;20256;-60
2021/10/02 13:16:28;;;;;;;4.32;3.38;;;;;;;;;;5033818;28;20096;-60
2021/10/02 13:18:55;;;;;;;3.40;3.08;;;;;;;;;;5033267;28;20028;-60
2021/10/02 13:21:20;;;;;;;8.82;3.75;;;;;;;;;;5032695;28;20141;-63
2021/10/02 13:23:51;;;;;;;5.40;3.85;;;;;;;;;;5057417;22;20132;-62
2021/10/02 13:26:20;;;;;;;4.18;3.70;;;;;;;;;;5019304;28;20022;-63
2021/10/02 13:28:46;;;;;;;4.55;3.60;;;;;;;;;;5014983;28;20045;-62
2021/10/02 13:31:14;;;;;;;3.50;3.20;;;;;;;;;;5019930;28;20018;-62
2021/10/02 13:33:49;;;;;;;5.28;3.55;;;;;;;;;;5014639;28;20205;-61
2021/10/02 13:36:32;;;;;;;4.13;3.30;;;;;;;;;;5014644;28;20058;-61
2021/10/02 13:39:10;;;;;;;4.85;3.63;;;;;;;;;;5013323;28;20029;-62
2021/10/02 13:41:36;;;;;;;5.18;3.72;;;;;;;;;;5014542;28;20022;-62
2021/10/02 13:44:03;;;;;;;3.85;3.42;;;;;;;;;;5012620;28;20032;-62
2021/10/02 13:46:36;;;;;;;4.35;3.63;;;;;;;;;;5013296;28;20072;-61
2021/10/02 13:49:03;;;;;;;6.45;4.00;;;;;;;;;;5014485;28;20018;-61
2021/10/02 13:51:37;;;;;;;3.38;3.08;;;;;;;;;;5014705;28;20435;-62
2021/10/02 13:54:03;;;;;;;4.88;3.67;;;;;;;;;;5014099;28;20065;-61
2021/10/02 13:56:36;;;;;;;4.75;3.35;;;;;;;;;;5015849;28;20053;-62
2021/10/02 13:59:04;;;;;;;5.13;3.63;;;;;;;;;;5019399;28;20030;-61
2021/10/02 14:01:30;;;;;;;4.28;3.20;;;;;;;;;;5012852;28;20018;-61
2021/10/02 14:03:55;;;;;;;5.97;3.65;;;;;;;;;;5015757;28;20025;-61
2021/10/02 14:06:21;;;;;;;4.63;3.60;;;;;;;;;;5024211;28;20032;-61
2021/10/02 14:08:52;;;;;;;6.45;3.20;;;;;;;;;;5025051;28;20473;-61
2021/10/02 14:11:20;;;;;;;4.10;3.30;;;;;;;;;;5025478;28;20014;-62
2021/10/02 14:13:51;;;;;;;7.72;3.58;;;;;;;;;;5026671;28;20104;-61
2021/10/02 14:16:17;;;;;;;4.45;3.45;;;;;;;;;;5022305;28;20079;-61
2021/10/02 14:18:42;;;;;;;5.13;3.63;;;;;;;;;;5023668;28;20009;-62
2021/10/02 14:21:08;;;;;;;4.45;3.13;;;;;;;;;;5028805;28;20018;-62
2021/10/02 14:23:33;;;;;;;5.97;3.90;;;;;;;;;;5023580;28;20049;-62
2021/10/02 14:26:04;;;;;;;5.68;3.60;;;;;;;;;;5023783;28;20456;-61
2021/10/02 14:28:31;;;;;;;4.38;3.50;;;;;;;;;;5021945;28;20083;-61
2021/10/02 14:30:56;;;;;;;3.85;3.35;;;;;;;;;;5024677;28;20121;-63
2021/10/02 14:33:22;;;;;;;3.88;3.45;;;;;;;;;;5026665;28;20104;-62
2021/10/02 14:35:53;;;;;;;7.18;3.45;;;;;;;;;;5013220;28;20022;-62
2021/10/02 14:38:22;;;;;;;4.30;3.10;;;;;;;;;;5013406;28;20380;-62
2021/10/02 14:40:47;;;;;;;5.63;3.63;;;;;;;;;;5013513;28;20014;-62
2021/10/02 14:43:16;;;;;;;4.15;3.50;;;;;;;;;;5012127;28;20045;-62
2021/10/02 14:45:41;;;;;;;4.10;3.70;;;;;;;;;;5013174;28;20030;-62
2021/10/02 14:48:07;;;;;;;6.43;3.60;;;;;;;;;;5011853;28;20548;-62
2021/10/02 14:50:32;;;;;;;4.00;3.60;;;;;;;;;;5012050;28;20025;-62
2021/10/02 14:52:59;;;;;;;4.18;3.50;;;;;;;;;;5013032;28;20100;-62
2021/10/02 14:55:24;;;;;;;4.75;4.00;;;;;;;;;;5011237;28;20039;-61
2021/10/02 14:57:51;;;;;;;5.10;3.50;;;;;;;;;;5036809;28;20017;-61
2021/10/02 15:00:16;;;;;;;4.32;3.47;;;;;;;;;;5013210;28;20037;-61
2021/10/02 15:02:44;;;;;;;6.25;3.63;;;;;;;;;;5013405;28;20018;-61
2021/10/02 15:05:15;;;;;;;4.80;3.60;;;;;;;;;;5012164;28;20050;-61
2021/10/02 15:07:47;;;;;;;6.18;3.55;;;;;;;;;;5013177;28;20384;-61
2021/10/02 15:10:12;;;;;;;3.55;3.25;;;;;;;;;;5011795;28;20026;-61
2021/10/02 15:12:43;;;;;;;4.25;3.60;;;;;;;;;;5012733;28;20401;-62
2021/10/02 15:15:11;;;;;;;3.88;3.42;;;;;;;;;;5011452;28;20072;-61
2021/10/02 15:17:37;;;;;;;3.80;3.33;;;;;;;;;;5011891;28;20049;-62
2021/10/02 15:20:02;;;;;;;5.13;3.20;;;;;;;;;;5012879;28;20073;-62
2021/10/02 15:22:30;;;;;;;5.13;3.33;;;;;;;;;;5012622;28;20092;-62
2021/10/02 15:25:07;;;;;;;7.85;3.85;;;;;;;;;;5012743;28;20018;-62
2021/10/02 15:27:34;;;;;;;5.18;3.40;;;;;;;;;;5011168;28;20018;-62
2021/10/02 15:30:02;;;;;;;4.50;3.72;;;;;;;;;;5012606;28;20034;-62
2021/10/02 15:32:31;;;;;;;4.43;3.45;;;;;;;;;;5030025;28;20025;-62
2021/10/02 15:34:57;;;;;;;6.32;3.50;;;;;;;;;;5032330;28;20047;-62
2021/10/02 15:37:29;;;;;;;5.20;3.40;;;;;;;;;;5030924;28;20502;-62
2021/10/02 15:39:54;;;;;;;4.20;3.60;;;;;;;;;;5032143;28;20021;-62
2021/10/02 15:42:19;;;;;;;4.35;3.60;;;;;;;;;;5047453;28;20033;-62
2021/10/02 15:44:51;;;;;;;4.00;3.13;;;;;;;;;;5019053;28;21172;-62
2021/10/02 15:47:18;;;;;;;5.43;3.63;;;;;;;;;;5027962;28;20025;-61
2021/10/02 15:49:46;;;;;;;6.55;3.72;;;;;;;;;;5025989;28;20028;-61
2021/10/02 15:52:13;;;;;;;4.55;3.15;;;;;;;;;;5014784;28;20113;-61